createdAt,value
2023-04-01T00:00:19.042Z,75.73
2023-04-01T00:01:21.276Z,75.80
2023-04-01T00:02:23.495Z,75.81
2023-04-01T00:03:27.725Z,76.65
2023-04-01T00:04:30.187Z,76.62
2023-04-01T00:05:32.548Z,77.10
2023-04-01T00:06:34.796Z,77.21
2023-04-01T00:07:40.419Z,77.92
2023-04-01T00:08:42.578Z,77.46
2023-04-01T00:09:44.689Z,78.17
2023-04-01T00:10:46.782Z,78.25
2023-04-01T00:11:49.170Z,78.69
2023-04-01T00:12:51.348Z,78.46
2023-04-01T00:13:53.560Z,78.89
2023-04-01T00:14:55.665Z,78.55
2023-04-01T00:16:00.021Z,78.72
2023-04-01T00:17:02.763Z,79.03
2023-04-01T00:18:05.735Z,79.22
2023-04-01T00:19:08.172Z,79.09
2023-04-01T00:20:10.820Z,79.21
2023-04-01T00:21:12.952Z,79.36
2023-04-01T00:22:15.121Z,79.55
2023-04-01T00:23:18.157Z,79.25
2023-04-01T00:24:20.294Z,80.00
2023-04-01T00:25:22.443Z,79.98
2023-04-01T00:26:25.679Z,80.34
2023-04-01T00:27:27.816Z,80.11
2023-04-01T00:28:30.686Z,80.50
2023-04-01T00:29:33.877Z,80.92
2023-04-01T00:30:37.560Z,81.27
2023-04-01T00:31:39.684Z,81.46
2023-04-01T00:32:41.980Z,81.56
2023-04-01T00:33:44.468Z,81.19
2023-04-01T00:34:46.653Z,81.39
2023-04-01T00:35:48.859Z,81.60
2023-04-01T00:36:53.294Z,82.05
2023-04-01T00:37:56.050Z,81.56
2023-04-01T00:38:59.929Z,81.70
2023-04-01T00:40:02.065Z,81.53
2023-04-01T00:41:05.616Z,81.63
2023-04-01T00:42:07.755Z,80.97
2023-04-01T00:43:13.921Z,81.50
2023-04-01T00:44:22.923Z,82.30
2023-04-01T00:45:32.867Z,81.35
2023-04-01T00:46:36.623Z,81.20
2023-04-01T00:47:38.765Z,81.19
2023-04-01T00:48:43.636Z,81.16
2023-04-01T00:49:48.226Z,81.11
2023-04-01T00:50:53.712Z,81.70
2023-04-01T00:51:57.215Z,81.67
2023-04-01T00:53:00.303Z,81.43
2023-04-01T00:54:04.682Z,81.57
2023-04-01T00:55:08.448Z,82.19
2023-04-01T00:56:17.330Z,82.01
2023-04-01T00:57:33.188Z,81.97
2023-04-01T00:58:39.659Z,81.87
2023-04-01T00:59:44.617Z,80.70
2023-04-01T01:00:48.136Z,79.83
2023-04-01T01:01:51.223Z,80.58
2023-04-01T01:02:53.498Z,80.71
2023-04-01T01:03:55.622Z,81.03
2023-04-01T01:04:57.757Z,81.10
2023-04-01T01:06:08.776Z,80.14
2023-04-01T01:07:16.678Z,81.37
2023-04-01T01:08:45.074Z,81.00
2023-04-01T01:09:56.796Z,79.33
2023-04-01T01:10:58.894Z,80.38
2023-04-01T01:12:19.047Z,79.78
2023-04-01T01:13:48.998Z,79.55
2023-04-01T01:15:03.044Z,78.67
2023-04-01T01:16:08.059Z,79.71
2023-04-01T01:17:27.542Z,78.49
2023-04-01T01:18:41.852Z,79.16
2023-04-01T01:20:15.510Z,79.97
2023-04-01T01:21:39.820Z,77.33
2023-04-01T01:22:56.682Z,78.13
2023-04-01T01:24:04.349Z,77.35
2023-04-01T01:25:42.192Z,77.74
2023-04-01T01:26:44.775Z,77.44
2023-04-01T01:27:58.147Z,76.42
2023-04-01T01:29:08.086Z,77.76
2023-04-01T01:30:33.361Z,77.68
2023-04-01T01:31:49.886Z,75.88
2023-04-01T01:33:19.247Z,75.83
2023-04-01T01:34:40.649Z,76.01
2023-04-01T01:35:48.479Z,76.15
2023-04-01T01:36:56.691Z,75.62
2023-04-01T01:38:05.019Z,74.98
2023-04-01T01:39:08.626Z,73.32
2023-04-01T01:40:13.022Z,72.45
2023-04-01T01:41:17.573Z,72.31
2023-04-01T01:42:21.670Z,72.57
2023-04-01T01:43:26.572Z,72.67
2023-04-01T01:44:29.862Z,72.55
2023-04-01T01:45:33.744Z,72.80
2023-04-01T01:46:37.210Z,71.77
2023-04-01T01:47:40.276Z,71.83
2023-04-01T01:48:43.351Z,71.61
2023-04-01T01:49:46.066Z,71.43
2023-04-01T01:50:49.656Z,71.83
2023-04-01T01:51:51.890Z,71.65
2023-04-01T01:53:03.268Z,72.29
2023-04-01T01:54:05.448Z,71.70
2023-04-01T01:55:25.859Z,71.74
2023-04-01T01:56:30.434Z,72.12
2023-04-01T01:57:35.506Z,71.77
2023-04-01T01:58:41.935Z,72.11
2023-04-01T01:59:44.788Z,71.82
2023-04-01T02:00:52.537Z,71.38
2023-04-01T02:01:56.908Z,72.25
2023-04-01T02:03:00.013Z,72.09
2023-04-01T02:04:02.660Z,71.86
2023-04-01T02:05:05.780Z,72.92
2023-04-01T02:06:11.963Z,73.00
2023-04-01T02:07:20.794Z,72.70
2023-04-01T02:08:27.607Z,73.42
2023-04-01T02:09:30.984Z,73.95
2023-04-01T02:10:36.962Z,73.77
2023-04-01T02:11:54.444Z,73.48
2023-04-01T02:12:58.841Z,74.15
2023-04-01T02:14:14.258Z,74.44
2023-04-01T02:15:17.673Z,74.47
2023-04-01T02:16:30.950Z,73.86
2023-04-01T02:17:34.057Z,73.95
2023-04-01T02:18:38.497Z,72.84
2023-04-01T02:19:44.837Z,72.33
2023-04-01T02:20:47.142Z,72.79
2023-04-01T02:21:55.907Z,72.39
2023-04-01T02:23:00.729Z,74.33
2023-04-01T02:24:05.837Z,74.17
2023-04-01T02:25:13.948Z,72.26
2023-04-01T02:26:16.517Z,71.85
2023-04-01T02:27:19.516Z,71.24
2023-04-01T02:28:21.973Z,70.26
2023-04-01T02:29:26.117Z,69.78
2023-04-01T02:30:30.503Z,69.53
2023-04-01T02:31:33.429Z,69.78
2023-04-01T02:32:38.936Z,69.90
2023-04-01T02:33:41.423Z,69.48
2023-04-01T02:34:44.124Z,69.40
2023-04-01T02:35:46.559Z,69.76
2023-04-01T02:36:49.707Z,68.98
2023-04-01T02:37:53.688Z,69.20
2023-04-01T02:38:58.033Z,69.75
2023-04-01T02:40:01.998Z,69.25
2023-04-01T02:41:04.574Z,69.37
2023-04-01T02:42:06.909Z,69.72
2023-04-01T02:43:09.079Z,69.94
2023-04-01T02:44:12.623Z,70.11
2023-04-01T02:45:16.014Z,69.50
2023-04-01T02:46:18.145Z,69.74
2023-04-01T02:47:20.276Z,69.64
2023-04-01T02:48:22.734Z,69.85
2023-04-01T02:49:24.872Z,69.66
2023-04-01T02:50:27.069Z,69.74
2023-04-01T02:51:29.671Z,69.84
2023-04-01T02:52:32.785Z,70.02
2023-04-01T02:53:34.936Z,69.85
2023-04-01T02:54:37.066Z,70.37
2023-04-01T02:55:39.366Z,70.18
2023-04-01T02:56:41.483Z,70.25
2023-04-01T02:57:43.598Z,70.13
2023-04-01T02:58:45.905Z,70.36
2023-04-01T02:59:48.466Z,70.23
2023-04-01T03:00:50.720Z,70.21
2023-04-01T03:01:52.884Z,70.39
2023-04-01T03:02:55.109Z,70.26
2023-04-01T03:03:57.289Z,70.23
2023-04-01T03:04:59.446Z,70.51
2023-04-01T03:06:08.821Z,70.51
2023-04-01T03:07:11.348Z,70.63
2023-04-01T03:08:13.501Z,70.49
2023-04-01T03:09:15.912Z,71.07
2023-04-01T03:10:18.195Z,70.98
2023-04-01T03:11:20.845Z,70.99
2023-04-01T03:12:22.981Z,71.12
2023-04-01T03:13:25.092Z,71.22
2023-04-01T03:14:27.279Z,71.12
2023-04-01T03:15:29.520Z,71.20
2023-04-01T03:16:31.796Z,70.87
2023-04-01T03:17:33.979Z,71.00
2023-04-01T03:18:36.136Z,70.80
2023-04-01T03:19:38.259Z,71.03
2023-04-01T03:20:40.601Z,71.17
2023-04-01T03:21:42.765Z,70.89
2023-04-01T03:22:44.943Z,70.95
2023-04-01T03:23:47.074Z,70.90
2023-04-01T03:24:49.618Z,71.98
2023-04-01T03:25:51.945Z,71.74
2023-04-01T03:26:54.058Z,71.69
2023-04-01T03:27:56.273Z,71.84
2023-04-01T03:28:58.499Z,71.78
2023-04-01T03:30:00.809Z,71.74
2023-04-01T03:31:03.143Z,72.10
2023-04-01T03:32:05.779Z,72.27
2023-04-01T03:33:07.946Z,72.10
2023-04-01T03:34:10.563Z,71.82
2023-04-01T03:35:12.732Z,71.97
2023-04-01T03:36:15.121Z,72.10
2023-04-01T03:37:17.259Z,72.19
2023-04-01T03:38:19.512Z,72.22
2023-04-01T03:39:21.630Z,72.79
2023-04-01T03:40:24.309Z,72.52
2023-04-01T03:41:26.634Z,72.41
2023-04-01T03:42:28.800Z,72.77
2023-04-01T03:43:31.007Z,72.80
2023-04-01T03:44:34.368Z,73.19
2023-04-01T03:45:37.278Z,73.29
2023-04-01T03:46:40.174Z,73.97
2023-04-01T03:47:42.440Z,73.07
2023-04-01T03:48:44.591Z,72.56
2023-04-01T03:49:46.780Z,72.46
2023-04-01T03:50:49.412Z,72.53
2023-04-01T03:51:51.548Z,72.31
2023-04-01T03:52:53.732Z,73.90
2023-04-01T03:53:56.160Z,73.62
2023-04-01T03:54:58.283Z,73.96
2023-04-01T03:56:04.926Z,73.58
2023-04-01T03:57:07.418Z,73.96
2023-04-01T03:58:10.017Z,73.49
2023-04-01T03:59:12.275Z,73.31
2023-04-01T04:00:14.727Z,73.29
2023-04-01T04:01:22.110Z,73.45
2023-04-01T04:02:24.436Z,73.77
2023-04-01T04:03:27.305Z,73.41
2023-04-01T04:04:29.576Z,74.94
2023-04-01T04:05:32.509Z,73.34
2023-04-01T04:06:34.946Z,73.66
2023-04-01T04:07:37.161Z,74.41
2023-04-01T04:08:39.665Z,73.43
2023-04-01T04:09:41.796Z,72.92
2023-04-01T04:10:44.442Z,72.88
2023-04-01T04:11:46.570Z,72.99
2023-04-01T04:12:50.177Z,72.97
2023-04-01T04:13:53.277Z,73.20
2023-04-01T04:14:55.404Z,72.99
2023-04-01T04:15:57.512Z,72.83
2023-04-01T04:16:59.731Z,73.07
2023-04-01T04:18:02.040Z,73.29
2023-04-01T04:19:04.832Z,73.43
2023-04-01T04:20:07.536Z,73.49
2023-04-01T04:21:13.372Z,74.13
2023-04-01T04:22:15.726Z,73.81
2023-04-01T04:23:19.129Z,73.81
2023-04-01T04:24:21.281Z,73.29
2023-04-01T04:25:23.442Z,73.36
2023-04-01T04:26:26.752Z,73.49
2023-04-01T04:27:28.926Z,73.69
2023-04-01T04:28:31.040Z,74.01
2023-04-01T04:29:33.162Z,73.74
2023-04-01T04:30:35.358Z,73.59
2023-04-01T04:31:37.592Z,73.53
2023-04-01T04:32:39.784Z,73.43
2023-04-01T04:33:41.922Z,73.64
2023-04-01T04:34:44.043Z,73.44
2023-04-01T04:35:46.279Z,73.41
2023-04-01T04:36:48.480Z,73.87
2023-04-01T04:37:50.602Z,74.32
2023-04-01T04:38:52.739Z,73.87
2023-04-01T04:39:54.852Z,73.70
2023-04-01T04:40:56.976Z,73.50
2023-04-01T04:41:59.133Z,74.16
2023-04-01T04:43:01.242Z,73.47
2023-04-01T04:44:03.452Z,74.36
2023-04-01T04:45:06.400Z,74.99
2023-04-01T04:46:11.744Z,73.55
2023-04-01T04:47:14.049Z,73.43
2023-04-01T04:48:19.733Z,73.17
2023-04-01T04:49:22.332Z,73.14
2023-04-01T04:50:25.182Z,72.63
2023-04-01T04:51:27.337Z,72.76
2023-04-01T04:52:29.443Z,72.46
2023-04-01T04:53:31.700Z,72.80
2023-04-01T04:54:33.824Z,72.96
2023-04-01T04:55:36.032Z,73.12
2023-04-01T04:56:38.153Z,72.04
2023-04-01T04:57:40.311Z,72.05
2023-04-01T04:58:42.451Z,71.92
2023-04-01T04:59:44.605Z,72.22
2023-04-01T05:00:47.159Z,72.07
2023-04-01T05:01:49.372Z,71.15
2023-04-01T05:02:51.627Z,71.17
2023-04-01T05:03:53.791Z,71.15
2023-04-01T05:04:56.305Z,71.62
2023-04-01T05:05:58.429Z,71.35
2023-04-01T05:07:00.552Z,71.15
2023-04-01T05:08:02.972Z,71.45
2023-04-01T05:09:05.337Z,71.54
2023-04-01T05:10:07.714Z,71.43
2023-04-01T05:11:18.642Z,72.55
2023-04-01T05:12:20.882Z,72.02
2023-04-01T05:13:23.163Z,71.75
2023-04-01T05:14:25.369Z,72.33
2023-04-01T05:15:27.562Z,72.29
2023-04-01T05:16:29.776Z,72.82
2023-04-01T05:17:32.032Z,71.97
2023-04-01T05:18:34.181Z,72.52
2023-04-01T05:19:36.402Z,72.48
2023-04-01T05:20:38.544Z,71.65
2023-04-01T05:21:40.688Z,71.97
2023-04-01T05:22:43.343Z,72.33
2023-04-01T05:23:45.533Z,72.48
2023-04-01T05:24:47.686Z,72.56
2023-04-01T05:25:50.936Z,72.16
2023-04-01T05:26:54.232Z,71.18
2023-04-01T05:27:57.306Z,72.13
2023-04-01T05:28:59.395Z,70.36
2023-04-01T05:30:01.740Z,70.83
2023-04-01T05:31:04.365Z,70.52
2023-04-01T05:32:06.621Z,69.70
2023-04-01T05:33:09.347Z,68.62
2023-04-01T05:34:11.473Z,67.83
2023-04-01T05:35:13.622Z,67.73
2023-04-01T05:36:17.197Z,67.38
2023-04-01T05:37:19.885Z,65.78
2023-04-01T05:38:22.062Z,65.84
2023-04-01T05:39:24.554Z,65.78
2023-04-01T05:40:26.741Z,65.05
2023-04-01T05:41:28.876Z,64.39
2023-04-01T05:42:31.002Z,64.13
2023-04-01T05:43:33.219Z,63.83
2023-04-01T05:44:36.118Z,64.32
2023-04-01T05:45:38.649Z,64.04
2023-04-01T05:46:40.934Z,65.54
2023-04-01T05:47:43.372Z,63.49
2023-04-01T05:48:45.673Z,63.99
2023-04-01T05:49:47.877Z,63.27
2023-04-01T05:50:50.075Z,62.46
2023-04-01T05:51:52.411Z,62.27
2023-04-01T05:52:54.675Z,62.35
2023-04-01T05:53:56.807Z,62.26
2023-04-01T05:54:59.820Z,62.00
2023-04-01T05:56:05.090Z,62.68
2023-04-01T05:57:07.514Z,61.84
2023-04-01T05:58:09.676Z,61.84
2023-04-01T05:59:12.496Z,62.18
2023-04-01T06:00:15.501Z,62.64
2023-04-01T06:01:17.692Z,61.57
2023-04-01T06:02:20.490Z,61.78
2023-04-01T06:03:22.804Z,62.11
2023-04-01T06:04:26.175Z,62.15
2023-04-01T06:05:30.458Z,63.37
2023-04-01T06:06:33.538Z,61.96
2023-04-01T06:07:35.647Z,62.14
2023-04-01T06:08:37.788Z,61.02
2023-04-01T06:09:40.369Z,62.11
2023-04-01T06:11:04.668Z,60.76
2023-04-01T06:12:21.780Z,60.72
2023-04-01T06:14:01.628Z,60.65
2023-04-01T06:15:09.495Z,60.28
2023-04-01T06:16:51.223Z,60.24
2023-04-01T06:18:20.678Z,59.75
2023-04-01T06:19:22.782Z,59.41
2023-04-01T06:20:24.860Z,59.13
2023-04-01T06:21:32.959Z,59.29
2023-04-01T06:22:54.044Z,59.62
2023-04-01T06:24:19.912Z,59.87
2023-04-01T06:25:22.051Z,59.57
2023-04-01T06:26:24.111Z,59.94
2023-04-01T06:27:42.966Z,59.62
2023-04-01T06:28:51.090Z,60.26
2023-04-01T06:30:21.781Z,60.28
2023-04-01T06:32:01.474Z,59.52
2023-04-01T06:34:00.974Z,59.44
2023-04-01T06:35:11.827Z,59.55
2023-04-01T06:36:31.715Z,59.15
2023-04-01T06:38:20.608Z,59.65
2023-04-01T06:39:37.857Z,59.46
2023-04-01T06:41:09.955Z,59.37
2023-04-01T06:42:29.249Z,58.62
2023-04-01T06:44:20.438Z,58.70
2023-04-01T06:45:31.886Z,58.39
2023-04-01T06:46:49.706Z,58.85
2023-04-01T06:47:58.307Z,58.70
2023-04-01T06:49:27.629Z,58.84
2023-04-01T06:51:26.785Z,58.35
2023-04-01T06:52:47.563Z,58.80
2023-04-01T06:54:06.171Z,58.83
2023-04-01T06:55:28.762Z,58.42
2023-04-01T06:56:31.613Z,58.34
2023-04-01T06:57:57.553Z,58.09
2023-04-01T06:59:05.414Z,58.17
2023-04-01T07:00:23.989Z,57.89
2023-04-01T07:01:35.548Z,58.86
2023-04-01T07:02:44.617Z,58.88
2023-04-01T07:03:58.348Z,58.22
2023-04-01T07:05:00.891Z,58.19
2023-04-01T07:06:10.008Z,58.22
2023-04-01T07:07:39.731Z,58.02
2023-04-01T07:08:44.413Z,58.05
2023-04-01T07:09:50.209Z,57.55
2023-04-01T07:10:59.862Z,57.60
2023-04-01T07:12:07.191Z,56.98
2023-04-01T07:13:17.207Z,57.18
2023-04-01T07:14:26.712Z,57.87
2023-04-01T07:15:35.689Z,57.89
2023-04-01T07:16:47.818Z,57.37
2023-04-01T07:18:04.679Z,56.68
2023-04-01T07:19:22.960Z,56.69
2023-04-01T07:20:29.131Z,56.57
2023-04-01T07:21:41.919Z,55.92
2023-04-01T07:22:49.517Z,55.58
2023-04-01T07:23:53.122Z,55.45
2023-04-01T07:24:55.771Z,55.05
2023-04-01T07:26:02.051Z,55.55
2023-04-01T07:27:09.782Z,56.31
2023-04-01T07:28:19.955Z,55.26
2023-04-01T07:29:22.412Z,54.90
2023-04-01T07:30:25.960Z,54.65
2023-04-01T07:31:46.339Z,55.00
2023-04-01T07:32:58.623Z,55.59
2023-04-01T07:34:12.078Z,55.32
2023-04-01T07:35:26.481Z,55.55
2023-04-01T07:36:31.236Z,54.88
2023-04-01T07:38:00.037Z,55.01
2023-04-01T07:39:29.363Z,55.66
2023-04-01T07:40:31.425Z,55.40
2023-04-01T07:42:01.367Z,55.92
2023-04-01T07:43:12.156Z,55.28
2023-04-01T07:44:22.235Z,53.75
2023-04-01T07:45:45.365Z,53.52
2023-04-01T07:47:13.576Z,53.89
2023-04-01T07:48:18.304Z,53.20
2023-04-01T07:49:20.314Z,53.94
2023-04-01T07:50:56.228Z,53.36
2023-04-01T07:51:59.766Z,53.15
2023-04-01T07:53:27.073Z,53.28
2023-04-01T07:54:47.440Z,52.27
2023-04-01T07:56:12.841Z,52.68
2023-04-01T07:57:22.962Z,52.76
2023-04-01T07:58:52.890Z,52.13
2023-04-01T08:00:21.807Z,52.36
2023-04-01T08:01:48.514Z,52.09
2023-04-01T08:03:11.688Z,52.11
2023-04-01T08:04:36.823Z,52.56
2023-04-01T08:05:47.729Z,51.85
2023-04-01T08:06:54.396Z,51.66
2023-04-01T08:08:30.663Z,51.90
2023-04-01T08:09:49.223Z,51.52
2023-04-01T08:11:09.902Z,51.41
2023-04-01T08:12:38.371Z,51.39
2023-04-01T08:14:18.519Z,51.68
2023-04-01T08:15:36.812Z,51.47
2023-04-01T08:16:49.229Z,51.22
2023-04-01T08:18:32.106Z,51.61
2023-04-01T08:19:53.167Z,50.84
2023-04-01T08:21:00.600Z,50.14
2023-04-01T08:22:05.979Z,50.35
2023-04-01T08:23:14.872Z,50.40
2023-04-01T08:24:37.350Z,50.72
2023-04-01T08:26:04.309Z,50.80
2023-04-01T08:27:35.478Z,50.91
2023-04-01T08:28:58.062Z,50.18
2023-04-01T08:30:20.564Z,50.28
2023-04-01T08:31:55.265Z,50.12
2023-04-01T08:33:11.462Z,49.22
2023-04-01T08:34:21.046Z,49.52
2023-04-01T08:35:48.281Z,48.94
2023-04-01T08:36:58.802Z,48.79
2023-04-01T08:38:12.383Z,49.24
2023-04-01T08:39:19.861Z,49.36
2023-04-01T08:40:56.940Z,49.64
2023-04-01T08:42:36.289Z,49.07
2023-04-01T08:44:01.282Z,49.91
2023-04-01T08:45:42.840Z,49.88
2023-04-01T08:47:09.582Z,48.81
2023-04-01T08:48:38.094Z,48.78
2023-04-01T08:50:04.843Z,48.64
2023-04-01T08:51:19.177Z,48.12
2023-04-01T08:52:35.571Z,47.51
2023-04-01T08:54:22.875Z,47.95
2023-04-01T08:55:48.256Z,49.21
2023-04-01T08:56:59.452Z,49.90
2023-04-01T08:58:38.108Z,50.04
2023-04-01T09:00:21.721Z,50.07
2023-04-01T09:01:26.643Z,49.62
2023-04-01T09:02:50.021Z,48.82
2023-04-01T09:04:16.979Z,49.55
2023-04-01T09:05:43.735Z,47.77
2023-04-01T09:07:17.914Z,49.78
2023-04-01T09:08:32.049Z,49.95
2023-04-01T09:09:47.121Z,48.64
2023-04-01T09:10:49.232Z,48.64
2023-04-01T09:12:21.089Z,48.20
2023-04-01T09:13:35.395Z,47.72
2023-04-01T09:14:58.798Z,46.40
2023-04-01T09:16:26.624Z,46.27
2023-04-01T09:17:31.233Z,45.24
2023-04-01T09:18:33.239Z,46.52
2023-04-01T09:19:49.462Z,46.55
2023-04-01T09:21:31.565Z,46.83
2023-04-01T09:22:54.437Z,46.13
2023-04-01T09:24:14.400Z,45.33
2023-04-01T09:25:49.558Z,45.08
2023-04-01T09:27:13.293Z,45.02
2023-04-01T09:28:17.764Z,45.24
2023-04-01T09:29:55.082Z,45.55
2023-04-01T09:31:13.453Z,44.97
2023-04-01T09:32:37.148Z,45.19
2023-04-01T09:33:48.297Z,44.67
2023-04-01T09:35:03.263Z,45.32
2023-04-01T09:36:19.236Z,44.81
2023-04-01T09:37:45.574Z,45.10
2023-04-01T09:38:59.416Z,46.81
2023-04-01T09:40:19.532Z,48.27
2023-04-01T09:41:24.720Z,48.47
2023-04-01T09:42:41.853Z,49.81
2023-04-01T09:43:55.883Z,50.49
2023-04-01T09:45:01.921Z,51.11
2023-04-01T09:46:11.700Z,51.25
2023-04-01T09:47:35.134Z,50.98
2023-04-01T09:48:56.117Z,51.09
2023-04-01T09:50:34.332Z,52.03
2023-04-01T09:51:50.960Z,52.01
2023-04-01T09:52:56.040Z,51.68
2023-04-01T09:54:13.322Z,52.65
2023-04-01T09:55:35.770Z,53.20
2023-04-01T09:56:40.611Z,52.61
2023-04-01T09:58:03.189Z,52.57
2023-04-01T09:59:24.518Z,52.49
2023-04-01T10:00:44.668Z,52.35
2023-04-01T10:01:53.840Z,52.72
2023-04-01T10:02:58.732Z,51.16
2023-04-01T10:04:09.692Z,51.84
2023-04-01T10:05:25.210Z,51.71
2023-04-01T10:06:39.013Z,51.01
2023-04-01T10:08:29.165Z,51.38
2023-04-01T10:09:54.394Z,52.30
2023-04-01T10:11:05.283Z,52.24
2023-04-01T10:12:17.714Z,52.21
2023-04-01T10:13:50.590Z,50.28
2023-04-01T10:15:04.570Z,49.98
2023-04-01T10:16:56.880Z,48.54
2023-04-01T10:18:17.045Z,46.90
2023-04-01T10:19:40.475Z,46.43
2023-04-01T10:21:08.004Z,47.68
2023-04-01T10:22:18.886Z,48.25
2023-04-01T10:23:39.137Z,49.05
2023-04-01T10:25:27.475Z,49.08
2023-04-01T10:26:48.354Z,49.99
2023-04-01T10:28:07.416Z,50.59
2023-04-01T10:29:38.646Z,50.94
2023-04-01T10:31:08.337Z,51.86
2023-04-01T10:32:19.365Z,53.23
2023-04-01T10:33:40.893Z,53.15
2023-04-01T10:34:46.523Z,53.06
2023-04-01T10:36:31.090Z,53.57
2023-04-01T10:37:49.636Z,53.64
2023-04-01T10:39:22.666Z,53.80
2023-04-01T10:40:46.413Z,53.88
2023-04-01T10:42:04.612Z,53.53
2023-04-01T10:43:25.324Z,53.74
2023-04-01T10:44:35.453Z,53.74
2023-04-01T10:45:59.311Z,53.38
2023-04-01T10:47:23.202Z,53.08
2023-04-01T10:48:49.865Z,52.68
2023-04-01T10:50:15.434Z,52.61
2023-04-01T10:51:48.718Z,52.65
2023-04-01T10:53:23.261Z,52.24
2023-04-01T10:54:47.699Z,52.45
2023-04-01T10:56:08.490Z,51.47
2023-04-01T10:57:16.392Z,51.68
2023-04-01T10:58:30.715Z,50.48
2023-04-01T10:59:53.056Z,49.99
2023-04-01T11:01:16.566Z,49.92
2023-04-01T11:02:40.194Z,49.67
2023-04-01T11:04:05.604Z,49.41
2023-04-01T11:05:35.891Z,50.16
2023-04-01T11:07:07.149Z,50.22
2023-04-01T11:08:09.688Z,49.53
2023-04-01T11:09:33.554Z,48.64
2023-04-01T11:11:14.624Z,47.27
2023-04-01T11:12:54.806Z,47.50
2023-04-01T11:14:05.972Z,48.08
2023-04-01T11:15:20.463Z,48.63
2023-04-01T11:16:47.925Z,47.92
2023-04-01T11:18:17.822Z,46.20
2023-04-01T11:19:28.722Z,44.35
2023-04-01T11:21:04.542Z,42.58
2023-04-01T11:22:15.680Z,41.14
2023-04-01T11:23:28.489Z,41.15
2023-04-01T11:24:41.019Z,40.61
2023-04-01T11:26:01.335Z,41.19
2023-04-01T11:27:30.331Z,42.44
2023-04-01T11:28:44.789Z,41.44
2023-04-01T11:30:07.886Z,41.39
2023-04-01T11:31:28.610Z,42.41
2023-04-01T11:32:49.060Z,44.20
2023-04-01T11:34:13.391Z,45.30
2023-04-01T11:35:21.177Z,46.00
2023-04-01T11:36:57.187Z,46.44
2023-04-01T11:40:11.198Z,48.57
2023-04-01T11:41:38.265Z,49.29
2023-04-01T11:42:53.088Z,50.34
2023-04-01T11:44:12.019Z,51.38
2023-04-01T11:45:16.825Z,51.10
2023-04-01T11:47:01.254Z,52.17
2023-04-01T11:48:25.401Z,52.20
2023-04-01T11:49:33.237Z,52.60
2023-04-01T11:50:59.182Z,52.57
2023-04-01T11:52:04.156Z,53.25
2023-04-01T11:53:31.293Z,53.10
2023-04-01T11:54:51.895Z,52.61
2023-04-01T11:56:12.330Z,53.21
2023-04-01T11:57:35.024Z,53.02
2023-04-01T11:59:00.023Z,52.27
2023-04-01T12:00:24.845Z,52.06
2023-04-01T12:01:50.566Z,52.29
2023-04-01T12:03:11.316Z,52.55
2023-04-01T12:04:47.227Z,52.49
2023-04-01T12:06:14.005Z,52.26
2023-04-01T12:07:34.897Z,52.46
2023-04-01T12:08:45.919Z,52.17
2023-04-01T12:09:57.798Z,51.29
2023-04-01T12:11:08.720Z,50.34
2023-04-01T12:12:31.176Z,50.12
2023-04-01T12:13:46.726Z,49.26
2023-04-01T12:15:10.128Z,48.94
2023-04-01T12:16:47.742Z,48.41
2023-04-01T12:18:14.740Z,47.14
2023-04-01T12:19:34.202Z,46.40
2023-04-01T12:20:59.075Z,47.10
2023-04-01T12:22:25.883Z,45.95
2023-04-01T12:23:51.944Z,46.02
2023-04-01T12:25:00.400Z,46.36
2023-04-01T12:26:26.491Z,46.20
2023-04-01T12:27:59.598Z,46.42
2023-04-01T12:29:01.898Z,46.39
2023-04-01T12:30:34.633Z,46.58
2023-04-01T12:31:43.308Z,46.78
2023-04-01T12:33:21.648Z,46.87
2023-04-01T12:34:58.977Z,46.80
2023-04-01T12:36:08.709Z,47.00
2023-04-01T12:37:13.632Z,47.43
2023-04-01T12:38:33.796Z,47.59
2023-04-01T12:40:12.648Z,47.60
2023-04-01T12:41:26.927Z,47.20
2023-04-01T12:43:00.542Z,47.11
2023-04-01T12:44:07.592Z,47.16
2023-04-01T12:45:24.989Z,46.90
2023-04-01T12:46:28.475Z,47.07
2023-04-01T12:48:02.516Z,45.90
2023-04-01T12:49:32.730Z,44.94
2023-04-01T12:50:40.444Z,43.76
2023-04-01T12:52:02.058Z,43.45
2023-04-01T12:53:04.333Z,43.52
2023-04-01T12:54:54.626Z,41.38
2023-04-01T12:55:57.178Z,40.68
2023-04-01T12:57:23.740Z,42.07
2023-04-01T12:58:41.240Z,41.30
2023-04-01T12:59:52.201Z,41.21
2023-04-01T13:00:54.228Z,41.31
2023-04-01T13:02:17.545Z,42.44
2023-04-01T13:03:26.539Z,42.48
2023-04-01T13:04:41.024Z,42.19
2023-04-01T13:06:11.660Z,40.66
2023-04-01T13:07:31.813Z,38.56
2023-04-01T13:09:17.927Z,37.69
2023-04-01T13:10:25.886Z,35.80
2023-04-01T13:11:52.730Z,35.13
2023-04-01T13:13:22.108Z,34.51
2023-04-01T13:14:38.581Z,34.95
2023-04-01T13:15:59.069Z,34.93
2023-04-01T13:17:18.901Z,33.58
2023-04-01T13:18:36.237Z,32.55
2023-04-01T13:20:01.923Z,32.97
2023-04-01T13:21:24.775Z,34.50
2023-04-01T13:22:39.032Z,34.28
2023-04-01T13:23:56.469Z,33.05
2023-04-01T13:25:22.617Z,31.96
2023-04-01T13:26:34.078Z,31.65
2023-04-01T13:27:44.666Z,33.80
2023-04-01T13:28:58.634Z,32.63
2023-04-01T13:30:26.682Z,31.45
2023-04-01T13:31:34.732Z,31.26
2023-04-01T13:32:48.638Z,32.38
2023-04-01T13:34:07.443Z,31.57
2023-04-01T13:35:27.642Z,31.00
2023-04-01T13:36:44.408Z,29.52
2023-04-01T13:38:11.522Z,30.53
2023-04-01T13:39:33.016Z,30.96
2023-04-01T13:40:49.328Z,30.28
2023-04-01T13:42:15.550Z,29.83
2023-04-01T13:43:41.037Z,29.49
2023-04-01T13:44:52.878Z,28.65
2023-04-01T13:46:03.806Z,29.22
2023-04-01T13:47:26.812Z,29.10
2023-04-01T13:48:53.062Z,29.45
2023-04-01T13:50:18.076Z,29.38
2023-04-01T13:51:46.505Z,31.01
2023-04-01T13:52:51.462Z,30.34
2023-04-01T13:54:18.180Z,30.26
2023-04-01T13:55:23.030Z,31.18
2023-04-01T13:57:10.091Z,30.53
2023-04-01T13:58:12.177Z,30.97
2023-04-01T13:59:32.679Z,30.46
2023-04-01T14:00:46.573Z,31.13
2023-04-01T14:02:19.306Z,31.59
2023-04-01T14:03:59.241Z,32.52
2023-04-01T14:05:22.343Z,32.65
2023-04-01T14:06:41.332Z,33.25
2023-04-01T14:08:01.435Z,35.04
2023-04-01T14:09:23.151Z,34.53
2023-04-01T14:10:43.647Z,35.67
2023-04-01T14:12:05.177Z,38.22
2023-04-01T14:13:19.706Z,39.40
2023-04-01T14:14:33.828Z,40.32
2023-04-01T14:16:00.569Z,40.82
2023-04-01T14:17:22.128Z,40.72
2023-04-01T14:18:51.903Z,40.65
2023-04-01T14:20:08.012Z,41.66
2023-04-01T14:21:51.490Z,42.30
2023-04-01T14:23:00.863Z,42.02
2023-04-01T14:24:14.986Z,43.53
2023-04-01T14:25:28.730Z,43.62
2023-04-01T14:26:36.785Z,44.08
2023-04-01T14:28:06.542Z,45.09
2023-04-01T14:29:43.970Z,44.51
2023-04-01T14:31:10.731Z,44.67
2023-04-01T14:32:20.477Z,44.49
2023-04-01T14:33:41.173Z,44.32
2023-04-01T14:35:14.251Z,44.57
2023-04-01T14:36:44.843Z,42.56
2023-04-01T14:38:25.864Z,37.85
2023-04-01T14:39:40.422Z,35.01
2023-04-01T14:40:57.731Z,34.27
2023-04-01T14:42:21.831Z,33.10
2023-04-01T14:43:55.601Z,32.79
2023-04-01T14:44:57.716Z,31.25
2023-04-01T14:46:33.607Z,30.79
2023-04-01T14:47:45.746Z,31.03
2023-04-01T14:48:54.207Z,30.29
2023-04-01T14:50:06.903Z,30.20
2023-04-01T14:51:22.093Z,30.15
2023-04-01T14:52:29.837Z,30.45
2023-04-01T14:53:39.905Z,30.15
2023-04-01T14:54:45.524Z,29.72
2023-04-01T14:55:52.094Z,29.44
2023-04-01T14:57:06.310Z,29.15
2023-04-01T14:58:11.287Z,29.52
2023-04-01T14:59:22.294Z,29.18
2023-04-01T15:00:24.504Z,29.25
2023-04-01T15:01:51.790Z,28.76
2023-04-01T15:03:16.020Z,28.40
2023-04-01T15:04:39.443Z,28.64
2023-04-01T15:06:16.043Z,28.53
2023-04-01T15:07:27.189Z,28.64
2023-04-01T15:08:31.415Z,29.29
2023-04-01T15:09:49.028Z,32.09
2023-04-01T15:11:02.157Z,32.79
2023-04-01T15:12:34.435Z,34.17
2023-04-01T15:13:42.899Z,36.26
2023-04-01T15:15:04.077Z,37.76
2023-04-01T15:16:27.466Z,38.99
2023-04-01T15:17:48.723Z,39.20
2023-04-01T15:18:59.823Z,37.49
2023-04-01T15:20:44.926Z,36.43
2023-04-01T15:22:00.829Z,35.90
2023-04-01T15:23:21.612Z,34.51
2023-04-01T15:24:26.260Z,33.74
2023-04-01T15:25:40.888Z,34.18
2023-04-01T15:27:05.311Z,34.93
2023-04-01T15:28:34.345Z,35.70
2023-04-01T15:30:02.071Z,34.49
2023-04-01T15:31:29.634Z,33.03
2023-04-01T15:32:56.480Z,30.61
2023-04-01T15:34:04.486Z,29.53
2023-04-01T15:35:56.900Z,30.40
2023-04-01T15:37:36.349Z,31.54
2023-04-01T15:39:00.343Z,33.47
2023-04-01T15:40:20.010Z,34.72
2023-04-01T15:41:43.263Z,36.27
2023-04-01T15:42:57.044Z,37.11